Time;durP1;ratioP1;P1;durP2;ratioP2;P2;SDS_P1;SDS_P2;PMS_P1;PMS_P2;Temp;Humidity;BMP_temperature;BMP_pressure;BME280_temperature;BME280_humidity;BME280_pressure;Samples;Min_cycle;Max_cycle;Signal;HPM_P1;HPM_P2
2023/04/30 00:01:58;;;;;;;38.53;21.77;;;10.30;99.90;;;;;;4446921;28;658323;-70
2023/04/30 00:04:45;;;;;;;39.53;21.97;;;10.20;99.90;;;;;;4436978;28;656590;-70
2023/04/30 00:07:32;;;;;;;39.03;21.80;;;10.20;99.90;;;;;;4444097;28;657511;-69
2023/04/30 00:10:22;;;;;;;41.57;23.63;;;10.20;99.90;;;;;;4434104;28;656811;-70
2023/04/30 00:13:09;;;;;;;38.20;23.03;;;10.20;99.90;;;;;;4448332;28;656925;-70
2023/04/30 00:15:56;;;;;;;41.57;23.23;;;10.20;99.90;;;;;;4422942;28;656385;-70
2023/04/30 00:18:44;;;;;;;43.27;22.80;;;10.10;99.90;;;;;;4442492;28;657455;-70
2023/04/30 00:21:31;;;;;;;41.90;23.33;;;10.10;99.90;;;;;;4423335;28;656550;-70
2023/04/30 00:24:18;;;;;;;44.17;23.53;;;10.10;99.90;;;;;;4436787;28;656839;-69
2023/04/30 00:27:07;;;;;;;45.33;22.15;;;10.20;99.90;;;;;;4425285;28;656687;-70
2023/04/30 00:29:54;;;;;;;43.97;23.40;;;10.20;99.90;;;;;;4445813;28;658411;-70
2023/04/30 00:32:41;;;;;;;45.53;22.13;;;10.20;99.90;;;;;;4419550;28;656542;-70
2023/04/30 00:35:29;;;;;;;46.07;23.00;;;10.10;99.90;;;;;;4441169;28;657365;-70
2023/04/30 00:38:16;;;;;;;50.23;24.60;;;10.10;99.90;;;;;;4427388;28;656813;-70
2023/04/30 00:41:03;;;;;;;46.73;23.50;;;10.10;99.90;;;;;;4444165;28;656382;-69
2023/04/30 00:43:52;;;;;;;49.60;23.10;;;10.10;99.90;;;;;;4412457;28;656707;-70
2023/04/30 00:46:39;;;;;;;46.70;22.43;;;10.10;99.90;;;;;;4438031;28;656975;-70
2023/04/30 00:49:26;;;;;;;43.70;21.20;;;10.00;99.90;;;;;;4418003;28;656906;-69
2023/04/30 00:52:14;;;;;;;49.70;22.60;;;10.00;99.90;;;;;;4436182;28;657739;-69
2023/04/30 00:55:01;;;;;;;48.20;23.37;;;10.00;99.90;;;;;;4423931;28;656786;-69
2023/04/30 00:57:48;;;;;;;53.03;25.10;;;10.00;99.90;;;;;;4445353;28;657707;-70
2023/04/30 01:00:37;;;;;;;45.85;23.23;;;10.00;99.90;;;;;;4417364;28;656474;-70
2023/04/30 01:03:24;;;;;;;51.23;23.37;;;10.00;99.90;;;;;;4442606;28;655814;-70
2023/04/30 01:06:11;;;;;;;47.97;22.03;;;10.00;99.90;;;;;;4423159;28;656853;-70
2023/04/30 01:08:58;;;;;;;48.77;22.63;;;10.00;99.90;;;;;;4442765;28;657765;-70
2023/04/30 01:11:52;;;;;;;50.83;22.33;;;10.00;99.90;;;;;;4420921;28;656482;-70
2023/04/30 01:14:46;;;;;;;46.40;22.07;;;9.90;99.90;;;;;;4439644;28;656526;-70
2023/04/30 01:17:38;;;;;;;48.67;21.43;;;9.90;99.90;;;;;;4416877;28;657176;-70
2023/04/30 01:20:26;;;;;;;52.50;23.80;;;9.90;99.90;;;;;;4403349;28;655396;-70
2023/04/30 01:23:19;;;;;;;56.92;23.75;;;9.90;99.90;;;;;;4439262;28;656448;-70
2023/04/30 01:26:11;;;;;;;58.83;25.77;;;9.90;99.90;;;;;;4420516;28;655447;-69
2023/04/30 01:29:00;;;;;;;60.57;26.67;;;9.90;99.90;;;;;;4425441;28;655974;-70
2023/04/30 01:31:47;;;;;;;57.73;26.10;;;9.90;99.90;;;;;;4408865;28;655808;-70
2023/04/30 01:34:34;;;;;;;57.93;25.47;;;9.90;99.90;;;;;;4389201;28;655861;-70
2023/04/30 01:37:24;;;;;;;57.70;24.23;;;9.80;99.90;;;;;;4341898;28;655339;-70
2023/04/30 01:40:21;;;;;;;55.43;24.80;;;9.80;99.90;;;;;;4287400;28;655156;-70
2023/04/30 01:43:12;;;;;;;53.17;24.87;;;9.80;99.90;;;;;;4419525;28;656249;-70
2023/04/30 01:46:04;;;;;;;55.90;24.33;;;9.80;99.90;;;;;;4416809;28;656204;-69
2023/04/30 01:48:54;;;;;;;52.80;23.40;;;9.90;99.90;;;;;;4422613;28;655431;-70
2023/04/30 01:51:42;;;;;;;55.57;23.90;;;9.80;99.90;;;;;;4416106;28;655654;-70
2023/04/30 01:54:33;;;;;;;50.13;22.27;;;9.80;99.90;;;;;;4440697;28;656528;-70
2023/04/30 01:57:23;;;;;;;44.50;20.03;;;9.80;99.90;;;;;;4402866;28;655516;-70
2023/04/30 02:00:11;;;;;;;46.70;21.03;;;9.80;99.90;;;;;;4425274;28;655622;-69
2023/04/30 02:03:00;;;;;;;43.25;19.88;;;9.70;99.90;;;;;;4441766;28;655963;-70
2023/04/30 02:05:47;;;;;;;43.67;18.80;;;9.70;99.90;;;;;;4416391;28;656448;-69
2023/04/30 02:08:34;;;;;;;37.73;16.83;;;9.80;99.90;;;;;;4440297;28;656152;-70
2023/04/30 02:11:23;;;;;;;37.60;18.13;;;9.70;99.90;;;;;;4421883;28;655932;-69
2023/04/30 02:14:10;;;;;;;30.63;15.03;;;9.70;99.90;;;;;;4435522;28;655398;-70
2023/04/30 02:16:57;;;;;;;30.60;13.17;;;9.70;99.90;;;;;;4446932;28;655353;-69
2023/04/30 02:19:46;;;;;;;36.67;15.03;;;9.70;99.90;;;;;;4443244;28;655538;-70
2023/04/30 02:22:33;;;;;;;27.17;13.87;;;9.60;99.90;;;;;;4416311;28;655988;-70
2023/04/30 02:25:20;;;;;;;31.30;13.93;;;9.60;99.90;;;;;;4424845;28;656165;-69
2023/04/30 02:28:07;;;;;;;26.50;13.70;;;9.60;99.90;;;;;;4448844;28;656378;-70
2023/04/30 02:30:55;;;;;;;23.10;12.10;;;9.60;99.90;;;;;;4439821;28;655892;-69
2023/04/30 02:33:42;;;;;;;25.33;12.17;;;9.60;99.90;;;;;;4445080;28;656144;-70
2023/04/30 02:36:35;;;;;;;21.10;11.93;;;9.60;99.90;;;;;;4445578;28;655245;-69
2023/04/30 02:39:22;;;;;;;22.93;11.57;;;9.60;99.90;;;;;;4395939;28;656359;-69
2023/04/30 02:42:10;;;;;;;19.37;11.07;;;9.60;99.90;;;;;;4440919;28;655031;-69
2023/04/30 02:44:57;;;;;;;23.93;11.83;;;9.60;99.90;;;;;;4422452;28;655107;-69
2023/04/30 02:47:44;;;;;;;20.60;10.37;;;9.60;99.90;;;;;;4443911;28;655395;-69
2023/04/30 02:50:31;;;;;;;23.83;10.93;;;9.60;99.90;;;;;;4430553;28;655524;-70
2023/04/30 02:53:20;;;;;;;20.63;11.23;;;9.50;99.90;;;;;;4441074;28;656707;-69
2023/04/30 02:56:07;;;;;;;21.03;11.57;;;9.50;99.90;;;;;;4424465;28;655862;-69
2023/04/30 02:58:55;;;;;;;19.10;9.97;;;9.40;99.90;;;;;;4434092;28;655819;-70
2023/04/30 03:01:42;;;;;;;16.60;9.90;;;9.50;99.90;;;;;;4450641;28;654725;-69
2023/04/30 03:04:29;;;;;;;19.87;11.53;;;9.40;99.90;;;;;;4432958;28;654791;-70
2023/04/30 03:07:17;;;;;;;18.27;10.83;;;9.40;99.90;;;;;;4424431;28;655615;-69
2023/04/30 03:10:07;;;;;;;18.37;11.33;;;9.50;99.90;;;;;;4441895;28;655222;-69
2023/04/30 03:12:54;;;;;;;19.23;11.60;;;9.50;99.90;;;;;;4423172;28;655960;-70
2023/04/30 03:15:41;;;;;;;21.07;11.07;;;9.50;99.90;;;;;;4424943;28;656151;-70
2023/04/30 03:18:28;;;;;;;20.00;11.80;;;9.50;99.90;;;;;;4444645;28;656545;-70
2023/04/30 03:21:16;;;;;;;20.73;11.00;;;9.50;99.90;;;;;;4414310;28;655940;-70
2023/04/30 03:24:03;;;;;;;15.87;10.00;;;9.50;99.90;;;;;;4442465;28;656022;-69
2023/04/30 03:26:52;;;;;;;14.23;9.07;;;9.50;99.90;;;;;;4426296;28;655384;-69
2023/04/30 03:29:39;;;;;;;12.77;8.00;;;9.60;99.90;;;;;;4445019;28;654737;-70
2023/04/30 03:32:26;;;;;;;12.30;6.90;;;9.60;99.90;;;;;;4422625;28;654628;-69
2023/04/30 03:35:13;;;;;;;10.00;7.10;;;9.50;99.90;;;;;;4441755;28;655149;-70
2023/04/30 03:38:00;;;;;;;14.80;7.67;;;9.50;99.90;;;;;;4419347;28;655406;-68
2023/04/30 03:40:47;;;;;;;19.40;10.33;;;9.50;99.90;;;;;;4447607;28;654347;-70
2023/04/30 03:43:37;;;;;;;27.17;14.63;;;9.40;99.90;;;;;;4439512;28;655194;-69
2023/04/30 03:46:24;;;;;;;30.97;17.40;;;9.30;99.90;;;;;;4446305;28;655262;-69
2023/04/30 03:49:11;;;;;;;40.70;23.57;;;9.30;99.90;;;;;;4419309;28;655894;-69
2023/04/30 03:51:59;;;;;;;44.30;23.63;;;9.10;99.90;;;;;;4446504;28;655879;-70
2023/04/30 03:54:47;;;;;;;45.23;23.63;;;9.00;99.90;;;;;;4417319;28;655954;-69
2023/04/30 03:57:34;;;;;;;34.73;19.90;;;8.90;99.90;;;;;;4441843;28;655459;-69
2023/04/30 04:00:22;;;;;;;32.30;18.40;;;8.80;99.90;;;;;;4423214;28;656711;-70
2023/04/30 04:03:10;;;;;;;29.50;18.17;;;8.80;99.90;;;;;;4436749;28;655413;-70
2023/04/30 04:05:57;;;;;;;29.20;16.83;;;8.70;99.90;;;;;;4443923;28;654930;-69
2023/04/30 04:08:45;;;;;;;25.07;16.27;;;8.70;99.90;;;;;;4441687;28;655669;-69
2023/04/30 04:11:33;;;;;;;28.37;16.83;;;8.70;99.90;;;;;;4414667;28;656179;-69
2023/04/30 04:14:20;;;;;;;30.33;16.20;;;8.70;99.90;;;;;;4431218;28;656967;-69
2023/04/30 04:17:09;;;;;;;31.80;17.10;;;8.60;99.90;;;;;;4438271;28;656299;-69
2023/04/30 04:19:56;;;;;;;28.00;15.50;;;8.50;99.90;;;;;;4421812;28;655644;-69
2023/04/30 04:22:44;;;;;;;29.13;16.30;;;8.50;99.90;;;;;;4442171;28;656323;-68
2023/04/30 04:25:32;;;;;;;24.23;14.90;;;8.40;99.90;;;;;;4425706;28;655018;-69
2023/04/30 04:28:20;;;;;;;28.47;15.43;;;8.30;99.90;;;;;;4434281;28;655600;-68
2023/04/30 04:31:07;;;;;;;24.10;15.57;;;8.30;99.90;;;;;;4423305;28;656343;-70
2023/04/30 04:33:57;;;;;;;24.60;15.00;;;8.30;99.90;;;;;;4446478;28;655583;-68
2023/04/30 04:36:44;;;;;;;24.03;14.07;;;8.10;99.90;;;;;;4421109;28;655665;-68
2023/04/30 04:39:31;;;;;;;23.50;14.17;;;8.20;99.90;;;;;;4422650;28;655166;-69
2023/04/30 04:42:20;;;;;;;24.27;14.37;;;8.10;99.90;;;;;;4445638;28;656729;-68
2023/04/30 04:45:08;;;;;;;25.43;15.83;;;8.00;99.90;;;;;;4414087;28;656454;-69
2023/04/30 04:47:56;;;;;;;26.70;15.17;;;8.00;99.90;;;;;;4424722;28;656029;-68
2023/04/30 04:50:44;;;;;;;25.37;15.20;;;8.00;99.90;;;;;;4445882;28;656324;-68
2023/04/30 04:53:31;;;;;;;29.63;16.63;;;8.00;99.90;;;;;;4418365;28;655960;-69
2023/04/30 04:56:18;;;;;;;29.57;17.30;;;7.80;99.90;;;;;;4439993;28;655908;-69
2023/04/30 04:59:07;;;;;;;28.07;16.43;;;7.80;99.90;;;;;;4424564;28;655554;-69
2023/04/30 05:01:54;;;;;;;32.30;18.03;;;7.80;99.90;;;;;;4447997;28;655007;-69
2023/04/30 05:04:41;;;;;;;33.70;18.97;;;7.80;99.90;;;;;;4422874;28;656360;-69
2023/04/30 05:07:30;;;;;;;28.73;16.37;;;7.70;99.90;;;;;;4442088;28;656951;-68
2023/04/30 05:10:17;;;;;;;31.70;16.20;;;7.70;99.90;;;;;;4411780;28;655993;-68
2023/04/30 05:13:04;;;;;;;34.93;18.07;;;7.70;99.90;;;;;;4435013;28;655349;-68
2023/04/30 05:15:52;;;;;;;32.43;17.47;;;7.70;99.90;;;;;;4421582;28;655485;-68
2023/04/30 05:18:39;;;;;;;32.20;17.07;;;7.70;99.90;;;;;;4442869;28;655519;-68
2023/04/30 05:21:28;;;;;;;30.90;17.70;;;7.70;99.90;;;;;;4422117;28;655589;-69
2023/04/30 05:24:17;;;;;;;31.50;17.97;;;7.70;99.90;;;;;;4425080;28;655231;-69
2023/04/30 05:27:04;;;;;;;33.47;16.53;;;7.70;99.90;;;;;;4439788;28;654998;-67
2023/04/30 05:29:51;;;;;;;31.97;18.70;;;7.70;99.90;;;;;;4413516;28;656299;-68
2023/04/30 05:32:38;;;;;;;39.77;18.60;;;7.60;99.90;;;;;;4435849;28;655511;-69
2023/04/30 05:35:26;;;;;;;30.70;17.43;;;7.60;99.90;;;;;;4421517;28;655273;-69
2023/04/30 05:38:13;;;;;;;32.05;19.13;;;7.60;99.90;;;;;;4430815;28;656508;-69
2023/04/30 05:41:02;;;;;;;31.37;17.37;;;7.50;99.90;;;;;;4369324;28;655839;-69
2023/04/30 05:43:49;;;;;;;31.07;17.97;;;7.60;99.90;;;;;;4378450;28;656089;-69
2023/04/30 05:46:36;;;;;;;33.30;19.07;;;7.50;99.90;;;;;;4326557;28;655743;-69
2023/04/30 05:49:24;;;;;;;32.25;19.33;;;7.60;99.90;;;;;;4392926;28;655554;-69
2023/04/30 05:52:11;;;;;;;37.13;18.20;;;7.70;99.90;;;;;;4426948;28;655241;-69
2023/04/30 05:54:58;;;;;;;29.33;17.43;;;7.70;99.90;;;;;;4447492;28;655996;-69
2023/04/30 05:57:47;;;;;;;33.87;17.23;;;7.80;99.90;;;;;;4422179;28;655784;-69
2023/04/30 06:00:34;;;;;;;30.17;16.53;;;7.80;99.90;;;;;;4442699;28;657034;-69
2023/04/30 06:03:22;;;;;;;36.87;17.97;;;7.80;99.90;;;;;;4419205;28;656732;-70
2023/04/30 06:06:09;;;;;;;27.90;16.37;;;8.00;99.90;;;;;;4442068;28;655291;-70
2023/04/30 06:08:57;;;;;;;28.17;16.30;;;8.00;99.90;;;;;;4427820;28;656491;-70
2023/04/30 06:11:44;;;;;;;30.03;17.60;;;8.10;99.90;;;;;;4448039;28;655261;-70
2023/04/30 06:14:33;;;;;;;31.00;16.33;;;8.20;99.90;;;;;;4414333;28;655580;-70
2023/04/30 06:17:20;;;;;;;27.80;15.90;;;8.20;99.90;;;;;;4426252;28;655440;-70
2023/04/30 06:20:09;;;;;;;29.17;15.17;;;8.30;99.90;;;;;;4432836;28;656880;-70
2023/04/30 06:22:56;;;;;;;27.00;14.57;;;8.20;99.90;;;;;;4423235;28;655652;-69
2023/04/30 06:25:43;;;;;;;24.37;13.80;;;8.40;99.90;;;;;;4443957;28;657471;-68
2023/04/30 06:28:30;;;;;;;28.93;14.37;;;8.40;99.90;;;;;;4426679;28;655727;-69
2023/04/30 06:31:20;;;;;;;29.53;14.47;;;8.50;99.90;;;;;;4435849;28;656261;-69
2023/04/30 06:34:07;;;;;;;26.13;14.40;;;8.60;99.90;;;;;;4428948;28;655749;-70
2023/04/30 06:36:54;;;;;;;25.00;14.20;;;8.60;99.90;;;;;;4445729;28;655331;-69
2023/04/30 06:39:41;;;;;;;31.50;15.37;;;8.60;99.90;;;;;;4418408;28;655411;-69
2023/04/30 06:42:33;;;;;;;23.60;13.40;;;8.80;99.90;;;;;;4435188;28;656544;-70
2023/04/30 06:45:20;;;;;;;24.13;12.83;;;8.90;99.90;;;;;;4409398;28;656048;-70
2023/04/30 06:48:09;;;;;;;18.90;12.67;;;8.70;99.90;;;;;;4434819;28;656372;-69
2023/04/30 06:50:57;;;;;;;25.17;13.13;;;8.90;99.90;;;;;;4423664;28;655972;-70
2023/04/30 06:53:44;;;;;;;20.30;11.17;;;9.00;99.90;;;;;;4447751;28;656906;-69
2023/04/30 06:56:31;;;;;;;20.47;11.90;;;9.10;99.90;;;;;;4422356;28;655541;-70
2023/04/30 06:59:18;;;;;;;19.40;10.77;;;9.00;99.90;;;;;;4449098;28;656799;-69
2023/04/30 07:02:06;;;;;;;22.03;10.87;;;9.10;99.90;;;;;;4418468;28;655263;-70
2023/04/30 07:04:55;;;;;;;18.35;10.93;;;8.90;99.90;;;;;;4439647;28;656446;-70
2023/04/30 07:07:42;;;;;;;24.37;10.43;;;9.10;99.90;;;;;;4421197;28;656295;-68
2023/04/30 07:10:30;;;;;;;17.97;11.13;;;9.20;99.90;;;;;;4438659;28;655379;-70
2023/04/30 07:13:17;;;;;;;16.70;9.77;;;9.20;99.90;;;;;;4415917;28;656561;-69
2023/04/30 07:16:05;;;;;;;23.63;10.07;;;9.40;99.90;;;;;;4441259;28;654987;-70
2023/04/30 07:18:52;;;;;;;15.17;8.70;;;9.50;99.90;;;;;;4415933;28;656452;-69
2023/04/30 07:21:40;;;;;;;18.27;9.87;;;9.70;99.90;;;;;;4441310;28;654313;-69
2023/04/30 07:24:28;;;;;;;17.35;9.18;;;10.00;99.90;;;;;;4416188;28;654943;-69
2023/04/30 07:27:15;;;;;;;15.47;8.63;;;10.10;99.90;;;;;;4429645;28;655669;-69
2023/04/30 07:30:02;;;;;;;15.10;8.67;;;10.50;99.90;;;;;;4449888;28;656232;-70
2023/04/30 07:32:50;;;;;;;17.40;8.30;;;11.00;99.90;;;;;;4432251;28;655605;-69
2023/04/30 07:35:37;;;;;;;16.30;7.77;;;11.50;99.90;;;;;;4443012;28;656949;-71
2023/04/30 07:38:26;;;;;;;11.10;7.53;;;11.60;99.90;;;;;;4439278;28;656389;-72
2023/04/30 07:41:13;;;;;;;14.80;7.47;;;11.60;99.90;;;;;;4419137;28;656476;-70
2023/04/30 07:44:01;;;;;;;18.23;7.27;;;11.90;99.90;;;;;;4422130;28;655665;-71
2023/04/30 07:46:48;;;;;;;12.43;6.70;;;12.10;99.90;;;;;;4440601;28;656299;-71
2023/04/30 07:49:35;;;;;;;15.80;6.33;;;12.00;99.90;;;;;;4429697;28;655497;-69
2023/04/30 07:52:23;;;;;;;13.27;6.37;;;12.20;99.90;;;;;;4436405;28;656443;-69
2023/04/30 07:55:12;;;;;;;15.47;6.43;;;12.40;99.90;;;;;;4425172;28;655716;-70
2023/04/30 07:58:01;;;;;;;12.63;5.87;;;12.70;99.90;;;;;;4443329;28;655076;-70
2023/04/30 08:00:48;;;;;;;9.60;5.97;;;13.00;99.90;;;;;;4424178;28;655219;-70
2023/04/30 08:03:35;;;;;;;13.83;5.70;;;13.00;99.90;;;;;;4426574;28;654444;-70
2023/04/30 08:06:23;;;;;;;10.23;5.70;;;13.00;99.90;;;;;;4448635;28;655662;-68
2023/04/30 08:09:10;;;;;;;9.13;5.60;;;13.00;99.90;;;;;;4440346;28;655720;-70
2023/04/30 08:12:00;;;;;;;8.37;4.97;;;12.80;99.90;;;;;;4439945;28;654418;-71
2023/04/30 08:14:47;;;;;;;8.30;4.87;;;12.60;99.90;;;;;;4417584;28;654702;-69
2023/04/30 08:17:35;;;;;;;8.80;4.20;;;12.90;99.90;;;;;;4437510;28;654323;-71
2023/04/30 08:20:23;;;;;;;13.20;5.23;;;12.90;99.90;;;;;;4443715;28;655259;-73
2023/04/30 08:23:10;;;;;;;9.47;4.90;;;12.60;99.90;;;;;;4426302;28;655376;-68
2023/04/30 08:25:57;;;;;;;10.37;4.83;;;12.40;99.90;;;;;;4452586;28;654379;-70
2023/04/30 08:28:47;;;;;;;8.87;4.57;;;12.10;99.90;;;;;;4440806;28;655519;-68
2023/04/30 08:31:34;;;;;;;12.47;4.70;;;12.30;99.90;;;;;;4438850;28;654881;-70
2023/04/30 08:34:21;;;;;;;10.00;4.70;;;12.60;99.90;;;;;;4423380;28;655326;-73
2023/04/30 08:37:08;;;;;;;7.83;4.60;;;12.90;99.90;;;;;;4447460;28;655873;-69
2023/04/30 08:39:55;;;;;;;10.60;5.30;;;13.10;99.90;;;;;;4420429;28;655161;-69
2023/04/30 08:42:46;;;;;;;10.67;5.33;;;13.70;99.90;;;;;;4435433;28;656271;-71
2023/04/30 08:45:35;;;;;;;12.00;4.50;;;14.10;99.90;;;;;;4423284;28;655765;-70
2023/04/30 08:48:23;;;;;;;10.30;4.40;;;13.80;99.90;;;;;;4419135;28;656452;-71
2023/04/30 08:51:10;;;;;;;10.98;4.45;;;14.10;99.90;;;;;;4424157;28;655522;-70
2023/04/30 08:53:57;;;;;;;6.03;3.77;;;14.40;94.00;;;;;;4445111;28;655760;-71
2023/04/30 08:56:45;;;;;;;7.27;4.13;;;14.40;96.60;;;;;;4442846;28;654331;-71
2023/04/30 08:59:32;;;;;;;12.97;4.20;;;14.90;99.40;;;;;;4449214;28;654044;-67
2023/04/30 09:02:21;;;;;;;7.37;4.50;;;13.80;92.90;;;;;;4444074;28;655913;-70
2023/04/30 09:05:10;;;;;;;8.87;4.17;;;14.40;95.60;;;;;;4417437;28;655123;-70
2023/04/30 09:07:57;;;;;;;9.87;4.53;;;15.10;94.00;;;;;;4416727;28;655600;-70
2023/04/30 09:10:44;;;;;;;7.95;4.43;;;14.50;95.20;;;;;;4439272;28;654514;-70
2023/04/30 09:13:40;;;;;;;7.67;3.87;;;14.30;96.00;;;;;;4423595;28;654809;-70
2023/04/30 09:16:30;;;;;;;7.55;4.20;;;14.40;96.90;;;;;;4402354;28;654228;-70
2023/04/30 09:19:25;;;;;;;8.50;4.37;;;14.60;97.50;;;;;;4417402;28;654991;-70
2023/04/30 09:22:19;;;;;;;12.13;4.50;;;14.60;95.50;;;;;;4397162;28;655005;-70
2023/04/30 09:25:08;;;;;;;7.87;4.03;;;15.10;93.30;;;;;;4408576;28;656398;-70
2023/04/30 09:28:08;;;;;;;8.20;4.63;;;15.40;83.70;;;;;;4439263;28;654539;-70
2023/04/30 09:30:56;;;;;;;10.67;5.23;;;15.30;89.80;;;;;;4396248;28;654572;-70
2023/04/30 09:33:46;;;;;;;10.73;5.10;;;14.80;83.10;;;;;;4445588;28;656232;-71
2023/04/30 09:36:35;;;;;;;7.77;4.30;;;15.20;91.10;;;;;;4425864;28;655604;-70
2023/04/30 09:39:23;;;;;;;10.23;4.57;;;16.00;96.40;;;;;;4415733;28;655740;-70
2023/04/30 09:42:10;;;;;;;10.30;4.83;;;16.30;86.50;;;;;;4426551;28;655365;-70
2023/04/30 09:44:58;;;;;;;10.77;4.00;;;16.10;89.00;;;;;;4431057;28;656684;-70
2023/04/30 09:47:45;;;;;;;7.93;4.37;;;16.40;83.40;;;;;;4436637;28;655230;-69
2023/04/30 09:50:38;;;;;;;9.67;5.17;;;16.50;77.70;;;;;;4437771;28;654810;-68
2023/04/30 09:53:28;;;;;;;8.97;4.30;;;16.30;84.70;;;;;;4407343;28;654697;-70
2023/04/30 09:56:15;;;;;;;10.40;4.53;;;15.90;75.90;;;;;;4436025;28;654360;-70
2023/04/30 09:59:03;;;;;;;11.43;4.10;;;15.20;83.10;;;;;;4435456;28;656524;-70
2023/04/30 10:01:50;;;;;;;8.73;5.80;;;15.70;76.50;;;;;;4422169;28;656468;-70
2023/04/30 10:04:38;;;;;;;8.27;3.60;;;14.90;82.90;;;;;;4442771;28;654963;-69
2023/04/30 10:07:27;;;;;;;7.50;3.57;;;15.40;85.20;;;;;;4421092;28;654454;-70
2023/04/30 10:10:15;;;;;;;11.60;4.63;;;15.70;81.00;;;;;;4442943;28;654091;-70
2023/04/30 10:13:04;;;;;;;8.27;4.30;;;15.50;71.30;;;;;;4419958;28;656666;-70
2023/04/30 10:15:53;;;;;;;7.10;3.97;;;16.20;82.30;;;;;;4415434;28;654290;-70
2023/04/30 10:18:40;;;;;;;8.30;4.33;;;16.50;82.60;;;;;;4432472;28;655105;-70
2023/04/30 10:21:27;;;;;;;8.83;4.00;;;16.40;71.20;;;;;;4447604;28;656128;-70
2023/04/30 10:24:17;;;;;;;9.33;3.73;;;15.30;79.60;;;;;;4443072;28;654649;-70
2023/04/30 10:27:05;;;;;;;7.40;3.30;;;15.10;78.90;;;;;;4417916;28;654254;-68
2023/04/30 10:29:53;;;;;;;8.97;3.40;;;15.60;74.00;;;;;;4415279;28;655275;-67
2023/04/30 10:32:44;;;;;;;7.47;3.70;;;15.90;79.70;;;;;;4428825;28;654558;-68
2023/04/30 10:35:33;;;;;;;11.43;3.80;;;16.20;74.60;;;;;;4418662;28;654844;-68
2023/04/30 10:38:22;;;;;;;13.30;4.00;;;16.30;72.10;;;;;;4419792;28;656134;-68
2023/04/30 10:41:09;;;;;;;8.37;3.80;;;16.60;70.40;;;;;;4444539;28;655555;-68
2023/04/30 10:43:59;;;;;;;8.93;3.63;;;16.70;68.40;;;;;;4424656;28;654905;-67
2023/04/30 10:46:47;;;;;;;9.40;3.87;;;15.80;69.30;;;;;;4420829;28;654857;-67
2023/04/30 10:49:34;;;;;;;5.93;3.23;;;16.50;72.10;;;;;;4444953;28;654997;-68
2023/04/30 10:52:27;;;;;;;8.30;3.37;;;16.60;68.60;;;;;;4417094;28;655118;-67
2023/04/30 10:55:16;;;;;;;9.90;3.50;;;17.00;61.80;;;;;;4422212;28;654706;-67
2023/04/30 10:58:04;;;;;;;9.83;3.50;;;17.00;63.90;;;;;;4424211;28;654782;-68
2023/04/30 11:01:04;;;;;;;10.23;3.60;;;16.50;64.20;;;;;;4426530;28;655191;-68
2023/04/30 11:04:05;;;;;;;8.13;3.77;;;16.30;66.70;;;;;;4385778;28;655875;-68
2023/04/30 11:06:56;;;;;;;9.67;3.43;;;15.70;63.50;;;;;;4393807;28;654633;-68
2023/04/30 11:09:44;;;;;;;6.27;3.97;;;16.40;62.00;;;;;;4406603;28;654774;-68
2023/04/30 11:12:32;;;;;;;7.73;3.00;;;16.30;68.30;;;;;;4420037;28;655495;-68
2023/04/30 11:15:20;;;;;;;5.23;2.40;;;16.70;62.80;;;;;;4446030;28;656136;-69
2023/04/30 11:18:08;;;;;;;7.50;2.40;;;17.00;54.00;;;;;;4423922;28;655475;-68
2023/04/30 11:20:56;;;;;;;5.27;2.70;;;17.50;55.70;;;;;;4417889;28;654486;-69
2023/04/30 11:23:44;;;;;;;6.87;3.10;;;17.50;50.70;;;;;;4444625;28;655046;-70
2023/04/30 11:26:36;;;;;;;6.73;2.40;;;17.70;56.30;;;;;;4417566;28;654243;-69
2023/04/30 11:29:23;;;;;;;8.80;3.30;;;18.10;56.50;;;;;;4416515;28;655085;-68
2023/04/30 11:32:10;;;;;;;6.72;3.40;;;17.90;59.50;;;;;;4426906;28;654522;-69
2023/04/30 11:34:59;;;;;;;4.07;2.67;;;17.60;54.80;;;;;;4441824;28;655173;-68
2023/04/30 11:37:46;;;;;;;7.83;3.10;;;18.00;56.70;;;;;;4422746;28;654301;-68
2023/04/30 11:40:35;;;;;;;5.90;2.70;;;18.40;53.50;;;;;;4448754;28;654742;-69
2023/04/30 11:43:23;;;;;;;9.37;3.47;;;18.00;53.30;;;;;;4366509;28;655267;-68
2023/04/30 11:46:11;;;;;;;11.67;4.23;;;17.90;51.40;;;;;;4255044;28;654272;-68
2023/04/30 11:48:59;;;;;;;11.17;4.10;;;16.40;53.10;;;;;;4327954;28;655338;-68
2023/04/30 11:51:50;;;;;;;6.80;3.20;;;16.00;56.00;;;;;;4420181;28;655573;-68
2023/04/30 11:54:37;;;;;;;9.70;3.03;;;16.60;55.50;;;;;;4423079;28;655502;-69
2023/04/30 11:57:25;;;;;;;9.33;2.77;;;17.70;58.50;;;;;;4437704;28;654861;-69
2023/04/30 12:00:14;;;;;;;5.77;2.80;;;17.80;56.70;;;;;;4460129;28;654233;-69
2023/04/30 12:03:02;;;;;;;6.90;2.77;;;18.30;53.50;;;;;;4420938;28;654894;-69
2023/04/30 12:05:49;;;;;;;7.87;2.40;;;18.70;52.60;;;;;;4444853;28;654233;-68
2023/04/30 12:08:38;;;;;;;8.23;2.60;;;18.80;53.90;;;;;;4422959;28;654569;-68
2023/04/30 12:11:26;;;;;;;4.83;2.50;;;19.20;52.00;;;;;;4426578;28;654399;-68
2023/04/30 12:14:14;;;;;;;10.10;3.20;;;19.10;46.30;;;;;;4449893;28;655714;-69
2023/04/30 12:17:01;;;;;;;5.10;2.50;;;19.10;48.50;;;;;;4430380;28;655494;-69
2023/04/30 12:19:48;;;;;;;5.27;2.47;;;18.90;49.40;;;;;;4435003;28;654824;-69
2023/04/30 12:22:36;;;;;;;4.97;2.40;;;18.40;51.30;;;;;;4428348;28;654645;-68
2023/04/30 12:25:24;;;;;;;7.53;2.70;;;18.30;51.70;;;;;;4444683;28;654955;-69
2023/04/30 12:28:11;;;;;;;6.50;2.67;;;17.40;47.60;;;;;;4420752;28;654622;-68
2023/04/30 12:30:59;;;;;;;8.63;2.83;;;17.70;49.40;;;;;;4446200;28;655978;-69
2023/04/30 12:33:55;;;;;;;4.43;2.57;;;18.40;50.90;;;;;;4417419;28;654181;-69
2023/04/30 12:36:42;;;;;;;6.07;2.67;;;18.40;46.20;;;;;;4390427;28;655496;-69
2023/04/30 12:39:33;;;;;;;3.13;2.23;;;18.80;50.60;;;;;;4440252;28;654327;-69
2023/04/30 12:42:22;;;;;;;5.17;2.53;;;17.50;49.60;;;;;;4404017;28;654364;-69
2023/04/30 12:45:10;;;;;;;8.17;2.80;;;18.10;47.30;;;;;;4438785;28;654240;-69
2023/04/30 12:47:57;;;;;;;4.23;2.50;;;17.80;52.00;;;;;;4419034;28;655148;-69
2023/04/30 12:50:48;;;;;;;7.50;2.30;;;17.50;47.10;;;;;;4438285;28;654339;-69
2023/04/30 12:53:36;;;;;;;9.10;2.23;;;17.70;50.20;;;;;;4390672;28;655002;-69
2023/04/30 12:56:23;;;;;;;4.90;2.40;;;18.60;51.50;;;;;;4436224;28;655926;-69
2023/04/30 12:59:16;;;;;;;4.83;2.37;;;19.20;50.10;;;;;;4423504;28;654218;-69
2023/04/30 13:02:08;;;;;;;4.87;2.30;;;17.30;46.10;;;;;;4419782;28;654741;-69
2023/04/30 13:04:55;;;;;;;5.67;2.60;;;17.10;49.20;;;;;;4406758;28;654769;-69
2023/04/30 13:07:42;;;;;;;6.37;2.40;;;17.90;45.80;;;;;;4450183;28;654752;-69
2023/04/30 13:10:30;;;;;;;4.27;2.27;;;18.30;50.20;;;;;;4443057;28;654556;-69
2023/04/30 13:13:19;;;;;;;7.50;2.50;;;17.80;45.90;;;;;;4448756;28;655578;-68
2023/04/30 13:16:07;;;;;;;9.97;2.90;;;16.80;43.70;;;;;;4416976;28;654660;-68
2023/04/30 13:18:55;;;;;;;5.73;2.50;;;17.30;47.70;;;;;;4439362;28;654456;-69
2023/04/30 13:21:42;;;;;;;5.50;2.77;;;17.90;48.00;;;;;;4441643;28;655346;-69
2023/04/30 13:24:31;;;;;;;9.93;2.60;;;18.50;48.20;;;;;;4438470;28;656446;-70
2023/04/30 13:27:18;;;;;;;4.50;2.10;;;19.20;48.20;;;;;;4446788;28;655644;-69
2023/04/30 13:30:06;;;;;;;5.97;2.20;;;19.10;44.80;;;;;;4431667;28;655600;-69
2023/04/30 13:32:55;;;;;;;8.23;2.30;;;19.90;48.80;;;;;;4448547;28;656015;-69
2023/04/30 13:35:42;;;;;;;5.20;2.60;;;20.40;44.20;;;;;;4422444;28;655551;-69
2023/04/30 13:38:30;;;;;;;4.63;2.57;;;18.70;41.60;;;;;;4439571;28;655593;-69
2023/04/30 13:41:17;;;;;;;8.50;2.80;;;17.10;48.60;;;;;;4409268;28;656735;-68
2023/04/30 13:44:04;;;;;;;6.20;2.67;;;17.50;46.80;;;;;;4440746;28;655677;-69
2023/04/30 13:46:52;;;;;;;7.60;2.87;;;17.70;50.00;;;;;;4418422;28;655773;-69
2023/04/30 13:49:40;;;;;;;5.43;2.37;;;18.40;49.50;;;;;;4440665;28;655143;-70
2023/04/30 13:52:27;;;;;;;5.50;2.17;;;18.90;47.60;;;;;;4416842;28;656160;-69
2023/04/30 13:55:15;;;;;;;4.23;2.20;;;18.70;46.70;;;;;;4437932;28;655312;-69
2023/04/30 13:58:02;;;;;;;6.07;2.63;;;19.50;49.70;;;;;;4418453;28;656915;-69
2023/04/30 14:00:50;;;;;;;8.60;2.53;;;19.70;47.30;;;;;;4433691;28;655741;-68
2023/04/30 14:03:37;;;;;;;7.53;2.40;;;19.30;44.20;;;;;;4419663;28;656454;-69
2023/04/30 14:06:26;;;;;;;5.67;2.47;;;19.50;45.00;;;;;;4437402;28;655253;-69
2023/04/30 14:09:13;;;;;;;4.50;2.40;;;19.70;46.50;;;;;;4418949;28;656896;-70
2023/04/30 14:12:01;;;;;;;6.73;2.50;;;19.30;42.80;;;;;;4426385;28;655470;-68
2023/04/30 14:14:48;;;;;;;6.70;2.43;;;19.30;44.90;;;;;;4444976;28;655647;-70
2023/04/30 14:17:35;;;;;;;5.00;2.40;;;19.30;44.20;;;;;;4430310;28;655908;-68